createdAt,value
2022-10-11T00:00:03.793Z,2.10
2022-10-11T00:00:13.843Z,2.60
2022-10-11T00:00:23.893Z,2.70
2022-10-11T00:00:33.957Z,2.70
2022-10-11T00:00:44.002Z,2.50
2022-10-11T00:00:54.147Z,2.60
2022-10-11T00:01:04.081Z,2.60
2022-10-11T00:01:14.183Z,2.40
2022-10-11T00:01:24.268Z,2.00
2022-10-11T00:01:34.491Z,1.90
2022-10-11T00:01:44.471Z,2.10
2022-10-11T00:01:54.542Z,2.40
2022-10-11T00:02:04.583Z,2.50
2022-10-11T00:02:14.616Z,2.30
2022-10-11T00:02:26.464Z,2.30
2022-10-11T00:02:34.750Z,2.30
2022-10-11T00:02:44.819Z,2.70
2022-10-11T00:02:54.879Z,2.50
2022-10-11T00:03:04.940Z,2.50
2022-10-11T00:03:14.998Z,2.40
2022-10-11T00:03:25.037Z,2.20
2022-10-11T00:03:35.110Z,2.10
2022-10-11T00:03:45.152Z,1.90
2022-10-11T00:03:55.188Z,2.10
2022-10-11T00:04:05.237Z,2.20
2022-10-11T00:04:15.278Z,2.30
2022-10-11T00:04:25.389Z,2.50
2022-10-11T00:04:35.449Z,2.60
2022-10-11T00:04:45.579Z,2.80
2022-10-11T00:04:55.649Z,2.60
2022-10-11T00:05:05.686Z,2.30
2022-10-11T00:05:15.730Z,2.10
2022-10-11T00:05:25.766Z,2.00
2022-10-11T00:05:35.819Z,1.90
2022-10-11T00:05:45.849Z,2.10
2022-10-11T00:05:55.897Z,2.10
2022-10-11T00:06:06.620Z,2.20
2022-10-11T00:06:16.017Z,2.10
2022-10-11T00:06:26.072Z,2.10
2022-10-11T00:06:36.116Z,1.80
2022-10-11T00:06:46.159Z,2.00
2022-10-11T00:06:56.202Z,1.80
2022-10-11T00:07:06.248Z,2.00
2022-10-11T00:07:16.309Z,1.80
2022-10-11T00:07:26.357Z,1.90
2022-10-11T00:07:36.416Z,2.20
2022-10-11T00:07:46.488Z,2.20
2022-10-11T00:07:56.538Z,2.30
2022-10-11T00:08:06.592Z,1.90
2022-10-11T00:08:16.639Z,1.90
2022-10-11T00:08:26.680Z,1.70
2022-10-11T00:08:36.721Z,1.80
2022-10-11T00:08:46.759Z,1.90
2022-10-11T00:08:56.789Z,2.00
2022-10-11T00:09:06.840Z,2.50
2022-10-11T00:09:16.891Z,2.60
2022-10-11T00:09:26.931Z,3.00
2022-10-11T00:09:36.997Z,2.70
2022-10-11T00:09:47.040Z,2.40
2022-10-11T00:09:57.088Z,2.40
2022-10-11T00:10:07.124Z,2.40
2022-10-11T00:10:17.160Z,2.40
2022-10-11T00:10:27.209Z,2.10
2022-10-11T00:10:37.258Z,2.10
2022-10-11T00:10:47.319Z,2.70
2022-10-11T00:10:57.359Z,2.70
2022-10-11T00:11:07.432Z,2.60
2022-10-11T00:11:17.476Z,2.50
2022-10-11T00:11:27.529Z,2.20
2022-10-11T00:11:37.579Z,1.70
2022-10-11T00:11:47.629Z,1.70
2022-10-11T00:11:57.668Z,1.90
2022-10-11T00:12:07.708Z,2.00
2022-10-11T00:12:17.761Z,2.10
2022-10-11T00:12:27.791Z,2.30
2022-10-11T00:12:37.846Z,2.30
2022-10-11T00:12:47.899Z,2.20
2022-10-11T00:12:57.947Z,1.90
2022-10-11T00:13:07.990Z,2.10
2022-10-11T00:13:18.039Z,2.40
2022-10-11T00:13:28.076Z,2.60
2022-10-11T00:13:38.128Z,2.50
2022-10-11T00:13:48.189Z,2.10
2022-10-11T00:13:58.251Z,2.40
2022-10-11T00:14:08.307Z,2.40
2022-10-11T00:14:18.356Z,2.40
2022-10-11T00:14:28.399Z,2.10
2022-10-11T00:14:38.468Z,2.00
2022-10-11T00:14:48.518Z,2.10
2022-10-11T00:14:58.579Z,2.10
2022-10-11T00:15:08.619Z,2.00
2022-10-11T00:15:18.668Z,1.80
2022-10-11T00:15:28.809Z,2.00
2022-10-11T00:15:38.909Z,2.30
2022-10-11T00:15:48.959Z,2.60
2022-10-11T00:15:59.018Z,2.30
2022-10-11T00:16:09.157Z,2.10
2022-10-11T00:16:19.210Z,2.20
2022-10-11T00:16:29.278Z,2.30
2022-10-11T00:16:39.357Z,2.70
2022-10-11T00:16:49.409Z,2.40
2022-10-11T00:16:59.458Z,2.40
2022-10-11T00:17:09.527Z,2.40
2022-10-11T00:17:19.596Z,2.50
2022-10-11T00:17:29.659Z,2.40
2022-10-11T00:17:39.706Z,2.30
2022-10-11T00:17:49.758Z,2.10
2022-10-11T00:18:04.478Z,2.20
2022-10-11T00:18:10.786Z,1.80
2022-10-11T00:18:20.837Z,1.90
2022-10-11T00:18:30.888Z,2.20
2022-10-11T00:18:40.937Z,2.20
2022-10-11T00:18:50.989Z,2.20
2022-10-11T00:19:01.028Z,1.90
2022-10-11T00:19:11.093Z,2.00
2022-10-11T00:19:21.150Z,2.20
2022-10-11T00:19:31.188Z,2.30
2022-10-11T00:19:41.248Z,2.50
2022-10-11T00:19:51.310Z,2.30
2022-10-11T00:20:01.365Z,2.40
2022-10-11T00:20:11.418Z,2.20
2022-10-11T00:20:21.478Z,2.60
2022-10-11T00:20:31.518Z,2.60
2022-10-11T00:20:41.557Z,2.70
2022-10-11T00:20:51.597Z,2.50
2022-10-11T00:21:01.648Z,2.30
2022-10-11T00:21:11.698Z,2.20
2022-10-11T00:21:21.748Z,2.00
2022-10-11T00:21:31.819Z,2.20
2022-10-11T00:21:41.945Z,2.30
2022-10-11T00:21:51.964Z,2.50
2022-10-11T00:22:02.013Z,2.40
2022-10-11T00:22:12.057Z,2.30
2022-10-11T00:22:22.127Z,2.50
2022-10-11T00:22:32.180Z,2.40
2022-10-11T00:22:42.268Z,2.30
2022-10-11T00:22:52.317Z,2.30
2022-10-11T00:23:02.359Z,2.30
2022-10-11T00:23:12.415Z,2.40
2022-10-11T00:23:22.465Z,2.50
2022-10-11T00:23:32.498Z,2.50
2022-10-11T00:23:42.529Z,2.50
2022-10-11T00:23:52.586Z,2.70
2022-10-11T00:24:02.637Z,2.90
2022-10-11T00:24:12.701Z,2.90
2022-10-11T00:24:22.748Z,2.50
2022-10-11T00:24:32.797Z,2.30
2022-10-11T00:24:42.857Z,2.10
2022-10-11T00:24:52.905Z,2.40
2022-10-11T00:25:02.956Z,2.70
2022-10-11T00:25:13.008Z,3.00
2022-10-11T00:25:23.047Z,2.50
2022-10-11T00:25:33.088Z,2.50
2022-10-11T00:25:43.200Z,2.30
2022-10-11T00:25:53.277Z,2.10
2022-10-11T00:26:03.867Z,2.20
2022-10-11T00:26:13.387Z,2.20
2022-10-11T00:26:23.427Z,2.60
2022-10-11T00:26:33.481Z,2.90
2022-10-11T00:26:46.780Z,2.80
2022-10-11T00:26:53.607Z,2.70
2022-10-11T00:27:03.736Z,2.50
2022-10-11T00:27:13.789Z,2.60
2022-10-11T00:27:23.888Z,2.10
2022-10-11T00:27:34.008Z,2.20
2022-10-11T00:27:44.059Z,2.10
2022-10-11T00:27:54.099Z,2.50
2022-10-11T00:28:04.157Z,2.40
2022-10-11T00:28:14.253Z,2.20
2022-10-11T00:28:24.363Z,2.20
2022-10-11T00:28:34.447Z,2.50
2022-10-11T00:28:44.530Z,2.50
2022-10-11T00:28:54.634Z,2.70
2022-10-11T00:29:04.708Z,2.50
2022-10-11T00:29:14.761Z,2.60
2022-10-11T00:29:24.825Z,2.20
2022-10-11T00:29:34.868Z,2.20
2022-10-11T00:29:44.917Z,2.00
2022-10-11T00:29:54.967Z,2.30
2022-10-11T00:30:05.021Z,2.40
2022-10-11T00:30:15.069Z,2.70
2022-10-11T00:30:25.167Z,2.20
2022-10-11T00:30:35.217Z,2.20
2022-10-11T00:30:45.287Z,2.10
2022-10-11T00:30:55.335Z,2.50
2022-10-11T00:31:05.791Z,2.60
2022-10-11T00:31:15.508Z,2.60
2022-10-11T00:31:25.550Z,2.50
2022-10-11T00:31:36.019Z,2.40
2022-10-11T00:31:45.657Z,2.80
2022-10-11T00:31:55.687Z,2.70
2022-10-11T00:32:05.728Z,2.40
2022-10-11T00:32:15.795Z,2.10
2022-10-11T00:32:25.828Z,2.10
2022-10-11T00:32:35.879Z,2.20
2022-10-11T00:32:45.956Z,2.30
2022-10-11T00:32:56.016Z,2.50
2022-10-11T00:33:06.077Z,2.60
2022-10-11T00:33:16.127Z,2.80
2022-10-11T00:33:26.197Z,2.60
2022-10-11T00:33:36.267Z,2.30
2022-10-11T00:33:46.347Z,2.10
2022-10-11T00:33:56.467Z,2.20
2022-10-11T00:34:06.511Z,2.30
2022-10-11T00:34:16.565Z,2.50
2022-10-11T00:34:26.648Z,2.30
2022-10-11T00:34:36.705Z,2.40
2022-10-11T00:34:46.787Z,2.40
2022-10-11T00:34:56.844Z,2.40
2022-10-11T00:35:06.883Z,2.60
2022-10-11T00:35:16.937Z,2.50
2022-10-11T00:35:26.988Z,2.50
2022-10-11T00:35:37.038Z,2.50
2022-10-11T00:35:47.086Z,2.40
2022-10-11T00:35:57.187Z,2.50
2022-10-11T00:36:07.773Z,2.30
2022-10-11T00:36:17.307Z,2.30
2022-10-11T00:36:27.377Z,2.50
2022-10-11T00:36:37.435Z,2.50
2022-10-11T00:36:47.486Z,2.70
2022-10-11T00:36:57.538Z,2.50
2022-10-11T00:37:07.596Z,2.20
2022-10-11T00:37:17.747Z,1.70
2022-10-11T00:37:27.789Z,1.80
2022-10-11T00:37:37.839Z,2.20
2022-10-11T00:37:47.897Z,2.30
2022-10-11T00:37:57.973Z,2.20
2022-10-11T00:38:08.027Z,2.10
2022-10-11T00:38:18.089Z,2.40
2022-10-11T00:38:28.117Z,2.30
2022-10-11T00:38:38.168Z,2.20
2022-10-11T00:38:48.228Z,2.20
2022-10-11T00:38:58.275Z,2.70
2022-10-11T00:39:08.346Z,2.90
2022-10-11T00:39:18.397Z,2.70
2022-10-11T00:39:28.446Z,2.10
2022-10-11T00:39:38.499Z,1.80
2022-10-11T00:39:48.537Z,1.90
2022-10-11T00:39:58.587Z,1.90
2022-10-11T00:40:08.626Z,2.30
2022-10-11T00:40:18.695Z,2.10
2022-10-11T00:40:28.737Z,2.10
2022-10-11T00:40:38.795Z,1.70
2022-10-11T00:40:48.847Z,2.10
2022-10-11T00:40:58.908Z,2.10
2022-10-11T00:41:08.958Z,2.30
2022-10-11T00:41:19.032Z,2.10
2022-10-11T00:41:29.071Z,2.30
2022-10-11T00:41:39.117Z,2.60
2022-10-11T00:41:49.158Z,2.50
2022-10-11T00:41:59.206Z,2.40
2022-10-11T00:42:09.236Z,2.20
2022-10-11T00:42:19.300Z,2.10
2022-10-11T00:42:29.336Z,2.50
2022-10-11T00:42:39.398Z,2.30
2022-10-11T00:42:49.439Z,2.70
2022-10-11T00:42:59.476Z,2.50
2022-10-11T00:43:09.508Z,2.20
2022-10-11T00:43:19.606Z,1.90
2022-10-11T00:43:29.744Z,2.00
2022-10-11T00:43:39.786Z,2.20
2022-10-11T00:43:49.816Z,2.20
2022-10-11T00:43:59.867Z,1.90
2022-10-11T00:44:09.933Z,2.00
2022-10-11T00:44:19.989Z,2.50
2022-10-11T00:44:30.065Z,2.50
2022-10-11T00:44:40.116Z,2.20
2022-10-11T00:44:50.167Z,1.90
2022-10-11T00:45:00.227Z,2.30
2022-10-11T00:45:10.296Z,2.50
2022-10-11T00:45:20.364Z,2.20
2022-10-11T00:45:30.448Z,2.10
2022-10-11T00:45:40.496Z,2.30
2022-10-11T00:45:50.556Z,2.30
2022-10-11T00:46:00.623Z,2.50
2022-10-11T00:46:10.666Z,2.60
2022-10-11T00:46:20.716Z,2.90
2022-10-11T00:46:30.830Z,3.10
2022-10-11T00:46:40.888Z,3.20
2022-10-11T00:46:54.970Z,2.90
2022-10-11T00:47:01.076Z,2.50
2022-10-11T00:47:11.195Z,2.40
2022-10-11T00:47:21.246Z,2.40
2022-10-11T00:47:31.316Z,2.20
2022-10-11T00:47:41.394Z,2.20
2022-10-11T00:47:51.436Z,2.10
2022-10-11T00:48:01.486Z,1.90
2022-10-11T00:48:11.535Z,1.90
2022-10-11T00:48:21.584Z,2.10
2022-10-11T00:48:31.636Z,2.00
2022-10-11T00:48:41.701Z,2.20
2022-10-11T00:48:51.736Z,2.40
2022-10-11T00:49:01.777Z,2.50
2022-10-11T00:49:11.856Z,2.50
2022-10-11T00:49:21.905Z,2.10
2022-10-11T00:49:31.995Z,2.10
2022-10-11T00:49:42.045Z,2.30
2022-10-11T00:49:52.097Z,2.90
2022-10-11T00:50:02.157Z,3.00
2022-10-11T00:50:12.215Z,3.00
2022-10-11T00:50:22.273Z,2.70
2022-10-11T00:50:32.425Z,2.70
2022-10-11T00:50:42.475Z,2.50
2022-10-11T00:50:52.534Z,2.50
2022-10-11T00:51:03.059Z,2.20
2022-10-11T00:51:12.626Z,2.10
2022-10-11T00:51:22.717Z,1.90
2022-10-11T00:51:32.779Z,2.10
2022-10-11T00:51:42.826Z,2.20
2022-10-11T00:51:52.875Z,2.20
2022-10-11T00:52:02.924Z,2.30
2022-10-11T00:52:13.009Z,2.20
2022-10-11T00:52:23.127Z,2.30
2022-10-11T00:52:33.186Z,2.30
2022-10-11T00:52:43.254Z,2.40
2022-10-11T00:52:53.309Z,2.40
2022-10-11T00:53:03.358Z,2.20
2022-10-11T00:53:13.398Z,2.20
2022-10-11T00:53:23.444Z,2.20
2022-10-11T00:53:33.505Z,2.30
2022-10-11T00:53:43.545Z,2.20
2022-10-11T00:53:53.594Z,2.10
2022-10-11T00:54:03.638Z,2.20
2022-10-11T00:54:13.714Z,2.40
2022-10-11T00:54:23.777Z,2.40
2022-10-11T00:54:33.834Z,2.30
2022-10-11T00:54:43.926Z,2.10
2022-10-11T00:54:53.995Z,2.30
2022-10-11T00:55:04.035Z,2.10
2022-10-11T00:55:14.127Z,2.30
2022-10-11T00:55:24.167Z,2.50
2022-10-11T00:55:34.214Z,2.80
2022-10-11T00:55:44.257Z,2.60
2022-10-11T00:55:54.316Z,2.40
2022-10-11T00:56:04.727Z,2.30
2022-10-11T00:56:14.514Z,2.50
2022-10-11T00:56:24.555Z,2.40
2022-10-11T00:56:34.615Z,2.20
2022-10-11T00:56:44.666Z,2.00
2022-10-11T00:56:54.706Z,2.60
2022-10-11T00:57:04.747Z,3.00
2022-10-11T00:57:14.784Z,2.60
2022-10-11T00:57:24.838Z,2.00
2022-10-11T00:57:34.885Z,2.20
2022-10-11T00:57:44.939Z,2.40
2022-10-11T00:57:54.987Z,2.50
2022-10-11T00:58:05.036Z,2.20
2022-10-11T00:58:15.075Z,2.30
2022-10-11T00:58:25.118Z,2.10
2022-10-11T00:58:35.178Z,2.30
2022-10-11T00:58:45.235Z,2.40
2022-10-11T00:58:55.285Z,2.70
2022-10-11T00:59:05.347Z,2.50
2022-10-11T00:59:15.409Z,2.30
2022-10-11T00:59:25.443Z,2.50
2022-10-11T00:59:35.494Z,2.50
2022-10-11T00:59:45.557Z,2.60
2022-10-11T00:59:55.595Z,2.70
2022-10-11T01:00:05.665Z,2.90
2022-10-11T01:00:15.736Z,2.70
2022-10-11T01:00:25.794Z,2.30
2022-10-11T01:00:35.843Z,2.50
2022-10-11T01:00:45.914Z,2.80
2022-10-11T01:00:55.991Z,3.30
2022-10-11T01:01:06.091Z,2.90
2022-10-11T01:01:16.292Z,2.60
2022-10-11T01:01:26.265Z,2.30
2022-10-11T01:01:36.456Z,2.40
2022-10-11T01:01:46.637Z,2.50
2022-10-11T01:01:56.563Z,2.60
2022-10-11T01:02:06.627Z,2.60
2022-10-11T01:02:16.648Z,2.90
2022-10-11T01:02:26.675Z,3.00
2022-10-11T01:02:36.695Z,2.90
2022-10-11T01:02:46.722Z,2.40
2022-10-11T01:02:56.745Z,2.30
2022-10-11T01:03:06.763Z,2.40
2022-10-11T01:03:16.775Z,2.50
2022-10-11T01:03:26.803Z,2.60
2022-10-11T01:03:36.885Z,2.50
2022-10-11T01:03:46.896Z,2.90
2022-10-11T01:03:56.924Z,3.00
2022-10-11T01:04:06.968Z,3.20
2022-10-11T01:04:17.012Z,3.20
2022-10-11T01:04:27.097Z,3.10
2022-10-11T01:04:37.127Z,3.00
2022-10-11T01:04:47.225Z,2.80
2022-10-11T01:05:11.647Z,2.70
2022-10-11T01:05:28.266Z,2.70
2022-10-11T01:05:29.312Z,2.80
2022-10-11T01:05:30.653Z,2.80
2022-10-11T01:05:40.243Z,3.00
2022-10-11T01:05:50.276Z,2.40
2022-10-11T01:06:00.317Z,2.40
2022-10-11T01:06:10.335Z,2.50
2022-10-11T01:06:20.353Z,3.00
2022-10-11T01:06:30.365Z,3.40
2022-10-11T01:06:40.404Z,3.30
2022-10-11T01:06:50.427Z,3.30
2022-10-11T01:07:00.465Z,3.20
2022-10-11T01:07:10.475Z,3.70
2022-10-11T01:07:20.485Z,4.20
2022-10-11T01:07:30.506Z,5.20
2022-10-11T01:07:40.546Z,5.10
2022-10-11T01:07:50.568Z,4.50
2022-10-11T01:08:00.601Z,3.20
2022-10-11T01:08:10.632Z,3.20
2022-10-11T01:08:20.666Z,3.30
2022-10-11T01:08:30.724Z,3.50
2022-10-11T01:08:40.752Z,3.50
2022-10-11T01:08:50.773Z,3.20
2022-10-11T01:09:00.794Z,3.10
2022-10-11T01:09:10.815Z,3.00
2022-10-11T01:09:20.865Z,3.00
2022-10-11T01:09:30.945Z,3.20
2022-10-11T01:09:41.028Z,3.40
2022-10-11T01:09:51.056Z,3.50
2022-10-11T01:10:01.084Z,3.30
2022-10-11T01:10:11.106Z,2.80
2022-10-11T01:10:21.139Z,2.70
2022-10-11T01:10:31.154Z,2.80
2022-10-11T01:10:41.174Z,3.10
2022-10-11T01:10:51.245Z,2.80
2022-10-11T01:11:01.264Z,2.70
2022-10-11T01:11:11.294Z,2.50
2022-10-11T01:11:21.325Z,2.70
2022-10-11T01:11:31.356Z,2.70
2022-10-11T01:11:41.386Z,3.00
2022-10-11T01:11:51.404Z,3.00
2022-10-11T01:12:01.457Z,2.80
2022-10-11T01:12:11.475Z,2.40
2022-10-11T01:12:21.503Z,2.40
2022-10-11T01:12:31.552Z,2.60
2022-10-11T01:12:41.603Z,2.60
2022-10-11T01:12:51.656Z,2.70
2022-10-11T01:13:01.732Z,2.90
2022-10-11T01:13:11.794Z,2.80
2022-10-11T01:13:21.842Z,2.60
2022-10-11T01:13:31.914Z,2.60
2022-10-11T01:13:41.961Z,2.70
2022-10-11T01:13:52.009Z,2.80
2022-10-11T01:14:02.056Z,3.00
2022-10-11T01:14:12.104Z,3.00
2022-10-11T01:14:22.184Z,3.00
2022-10-11T01:14:32.236Z,2.70
2022-10-11T01:14:42.318Z,2.60
2022-10-11T01:14:52.374Z,2.90
2022-10-11T01:15:02.433Z,2.80
2022-10-11T01:15:12.492Z,2.50
2022-10-11T01:15:22.543Z,2.40
2022-10-11T01:15:32.624Z,2.40
2022-10-11T01:15:42.685Z,2.50
2022-10-11T01:15:52.733Z,2.20
2022-10-11T01:16:03.175Z,2.10
2022-10-11T01:16:12.896Z,2.50
2022-10-11T01:16:22.935Z,2.80
2022-10-11T01:16:32.984Z,2.80
2022-10-11T01:16:43.044Z,2.40
2022-10-11T01:16:53.093Z,2.30
2022-10-11T01:17:03.132Z,2.50
2022-10-11T01:17:13.208Z,2.60
2022-10-11T01:17:23.265Z,2.40
2022-10-11T01:17:33.325Z,2.40
2022-10-11T01:17:43.365Z,2.80
2022-10-11T01:17:53.424Z,2.90
2022-10-11T01:18:03.465Z,2.90
2022-10-11T01:18:13.523Z,2.30
2022-10-11T01:18:23.572Z,2.20
2022-10-11T01:18:33.614Z,2.30
2022-10-11T01:18:43.656Z,2.60
2022-10-11T01:18:53.711Z,2.40
2022-10-11T01:19:03.742Z,2.30
2022-10-11T01:19:13.782Z,2.20
2022-10-11T01:19:23.844Z,3.00
2022-10-11T01:19:33.899Z,3.20
2022-10-11T01:19:43.956Z,3.40
2022-10-11T01:19:54.004Z,3.00
2022-10-11T01:20:04.044Z,2.90
2022-10-11T01:20:14.102Z,2.80
2022-10-11T01:20:24.144Z,2.70
2022-10-11T01:20:34.222Z,2.80
2022-10-11T01:20:44.264Z,2.60
2022-10-11T01:20:54.325Z,2.70
2022-10-11T01:21:04.384Z,2.80
2022-10-11T01:21:14.434Z,3.00
2022-10-11T01:21:24.493Z,2.80
2022-10-11T01:21:34.545Z,2.70
2022-10-11T01:21:44.626Z,2.70
2022-10-11T01:21:54.682Z,2.70
2022-10-11T01:22:04.742Z,2.30
2022-10-11T01:22:14.802Z,2.30
2022-10-11T01:22:24.854Z,2.40
2022-10-11T01:22:34.986Z,2.60
2022-10-11T01:22:45.045Z,2.50
2022-10-11T01:22:55.097Z,2.50
2022-10-11T01:23:05.152Z,2.50
2022-10-11T01:23:15.214Z,2.60
2022-10-11T01:23:25.303Z,2.50
2022-10-11T01:23:35.373Z,3.20
2022-10-11T01:23:45.432Z,3.20
2022-10-11T01:23:55.484Z,3.00
2022-10-11T01:24:08.510Z,2.30
2022-10-11T01:24:15.584Z,2.40
2022-10-11T01:24:25.661Z,2.70
2022-10-11T01:24:35.793Z,3.10
2022-10-11T01:24:45.841Z,3.40
2022-10-11T01:24:55.901Z,3.00
2022-10-11T01:25:05.940Z,2.80
2022-10-11T01:25:15.993Z,2.50
2022-10-11T01:25:26.054Z,2.50
2022-10-11T01:25:36.103Z,2.60
2022-10-11T01:25:46.154Z,2.80
2022-10-11T01:25:56.222Z,2.70
2022-10-11T01:26:06.943Z,2.90
2022-10-11T01:26:16.591Z,3.20
2022-10-11T01:26:26.634Z,3.10
2022-10-11T01:26:36.683Z,2.80
2022-10-11T01:26:46.744Z,2.20
2022-10-11T01:26:56.803Z,2.40
2022-10-11T01:27:06.843Z,2.50
2022-10-11T01:27:16.894Z,2.70
2022-10-11T01:27:26.940Z,2.60
2022-10-11T01:27:36.993Z,2.50
2022-10-11T01:27:47.058Z,2.60
2022-10-11T01:27:57.093Z,2.70
2022-10-11T01:28:07.167Z,2.50
2022-10-11T01:28:17.240Z,2.20
2022-10-11T01:28:27.362Z,2.10
2022-10-11T01:28:37.504Z,2.30
2022-10-11T01:28:47.605Z,2.80
2022-10-11T01:28:57.722Z,2.80
2022-10-11T01:29:07.782Z,3.10
2022-10-11T01:29:17.846Z,3.20
2022-10-11T01:29:27.912Z,3.30
2022-10-11T01:29:37.983Z,3.20
2022-10-11T01:29:48.033Z,2.80
2022-10-11T01:29:58.094Z,2.80
2022-10-11T01:30:08.152Z,3.00
2022-10-11T01:30:18.220Z,3.10
2022-10-11T01:30:28.263Z,3.20
2022-10-11T01:30:38.442Z,3.30
2022-10-11T01:30:48.496Z,3.20
2022-10-11T01:30:58.533Z,3.30
2022-10-11T01:31:08.602Z,2.70
2022-10-11T01:31:18.655Z,2.70
2022-10-11T01:31:28.716Z,2.90
2022-10-11T01:31:38.768Z,3.20
2022-10-11T01:31:48.853Z,3.10
2022-10-11T01:31:58.923Z,2.80
2022-10-11T01:32:08.991Z,2.90
2022-10-11T01:32:19.052Z,3.00
2022-10-11T01:32:29.124Z,3.10
2022-10-11T01:32:39.175Z,2.90
2022-10-11T01:32:49.231Z,3.00
2022-10-11T01:32:59.281Z,3.10
2022-10-11T01:33:09.333Z,2.60
2022-10-11T01:33:19.381Z,2.30
2022-10-11T01:33:29.423Z,2.00
2022-10-11T01:33:39.512Z,2.20
2022-10-11T01:33:49.575Z,3.00
2022-10-11T01:33:59.619Z,3.20
2022-10-11T01:34:09.683Z,3.30
2022-10-11T01:34:19.803Z,2.70
2022-10-11T01:34:29.883Z,3.00
2022-10-11T01:34:39.932Z,3.00
2022-10-11T01:34:50.027Z,3.30
2022-10-11T01:35:00.072Z,2.80
2022-10-11T01:35:10.122Z,2.70
2022-10-11T01:35:20.163Z,2.40
2022-10-11T01:35:30.212Z,2.50
2022-10-11T01:35:40.352Z,2.70
2022-10-11T01:35:50.402Z,2.80
2022-10-11T01:36:00.476Z,2.80
2022-10-11T01:36:10.513Z,2.70
2022-10-11T01:36:20.553Z,2.40
2022-10-11T01:36:30.613Z,2.50
2022-10-11T01:36:40.675Z,2.50
2022-10-11T01:36:50.722Z,2.80
2022-10-11T01:37:00.773Z,2.70
2022-10-11T01:37:10.832Z,2.50
2022-10-11T01:37:20.901Z,2.40
2022-10-11T01:37:31.012Z,2.30
2022-10-11T01:37:41.072Z,2.40
2022-10-11T01:37:51.132Z,2.50
2022-10-11T01:38:01.183Z,2.70
2022-10-11T01:38:11.246Z,2.60
2022-10-11T01:38:21.302Z,2.60
2022-10-11T01:38:31.352Z,2.70
2022-10-11T01:38:41.421Z,2.60
2022-10-11T01:38:51.502Z,2.20
2022-10-11T01:39:01.572Z,2.30
2022-10-11T01:39:11.615Z,2.60
2022-10-11T01:39:21.769Z,2.90
2022-10-11T01:39:31.712Z,3.00
2022-10-11T01:39:41.784Z,2.80
2022-10-11T01:39:51.861Z,3.50
2022-10-11T01:40:01.952Z,3.40
2022-10-11T01:40:12.012Z,3.60
2022-10-11T01:40:22.063Z,3.40
2022-10-11T01:40:32.113Z,3.30
2022-10-11T01:40:42.142Z,2.90
2022-10-11T01:40:52.184Z,2.60
2022-10-11T01:41:02.235Z,2.70
2022-10-11T01:41:12.283Z,2.80
2022-10-11T01:41:22.344Z,2.70
2022-10-11T01:41:32.383Z,2.80
2022-10-11T01:41:42.445Z,3.00
2022-10-11T01:41:52.481Z,3.20
2022-10-11T01:42:02.522Z,3.70
2022-10-11T01:42:12.581Z,3.60
2022-10-11T01:42:22.651Z,3.40
2022-10-11T01:42:32.701Z,3.30
2022-10-11T01:42:42.758Z,3.50
2022-10-11T01:42:52.803Z,3.80
2022-10-11T01:43:02.886Z,3.40
2022-10-11T01:43:12.932Z,3.10
2022-10-11T01:43:22.991Z,2.80
2022-10-11T01:44:10.267Z,2.10
2022-10-11T01:44:20.314Z,2.20
2022-10-11T01:44:30.356Z,2.40
2022-10-11T01:44:41.055Z,2.50
2022-10-11T01:44:50.396Z,2.80
2022-10-11T01:45:00.444Z,2.80
2022-10-11T01:45:10.484Z,3.00
2022-10-11T01:45:20.516Z,2.90
2022-10-11T01:45:30.556Z,2.90
2022-10-11T01:45:40.595Z,3.10
2022-10-11T01:45:50.625Z,3.20
2022-10-11T01:46:00.736Z,3.50
2022-10-11T01:46:10.765Z,3.00
2022-10-11T01:46:20.816Z,2.70
2022-10-11T01:46:30.865Z,2.30
2022-10-11T01:46:40.978Z,2.70
2022-10-11T01:46:51.026Z,2.70
2022-10-11T01:47:01.065Z,2.80
2022-10-11T01:47:11.104Z,2.90
2022-10-11T01:47:21.143Z,3.00
2022-10-11T01:47:31.183Z,3.10
2022-10-11T01:47:41.206Z,2.80
2022-10-11T01:47:51.274Z,2.90
2022-10-11T01:48:01.328Z,3.30
2022-10-11T01:48:11.389Z,3.40
2022-10-11T01:48:21.427Z,3.00
2022-10-11T01:48:31.469Z,2.60
2022-10-11T01:48:41.504Z,2.60
2022-10-11T01:48:51.559Z,2.80
2022-10-11T01:49:01.637Z,2.50
2022-10-11T01:49:11.686Z,2.40
2022-10-11T01:49:21.734Z,2.40
2022-10-11T01:49:31.776Z,2.60
2022-10-11T01:49:41.816Z,2.50
2022-10-11T01:49:51.854Z,2.80
2022-10-11T01:50:01.886Z,3.30
2022-10-11T01:50:11.925Z,3.40
2022-10-11T01:50:21.956Z,3.10
2022-10-11T01:50:32.056Z,2.50
2022-10-11T01:50:42.135Z,2.60
2022-10-11T01:50:52.164Z,2.60
2022-10-11T01:51:02.195Z,2.60
2022-10-11T01:51:12.246Z,3.00
2022-10-11T01:51:22.266Z,3.50
2022-10-11T01:51:32.304Z,3.50
2022-10-11T01:51:47.000Z,3.20
2022-10-11T01:51:52.513Z,3.00
2022-10-11T01:52:02.536Z,2.90
2022-10-11T01:52:12.577Z,2.80
2022-10-11T01:52:22.607Z,2.90
2022-10-11T01:52:32.646Z,3.00
2022-10-11T01:52:42.706Z,3.10
2022-10-11T01:52:52.764Z,3.10
2022-10-11T01:53:02.806Z,3.10
2022-10-11T01:53:12.836Z,3.30
2022-10-11T01:53:22.906Z,2.90
2022-10-11T01:53:32.946Z,3.00
2022-10-11T01:53:42.976Z,2.70
2022-10-11T01:53:53.145Z,2.40
2022-10-11T01:54:03.172Z,2.30
2022-10-11T01:54:13.205Z,2.50
2022-10-11T01:54:23.235Z,2.80
2022-10-11T01:54:56.716Z,3.00
2022-10-11T01:55:08.260Z,3.00
2022-10-11T01:55:09.292Z,3.60
2022-10-11T01:55:10.326Z,3.70
2022-10-11T01:55:16.355Z,4.00
2022-10-11T01:55:26.385Z,3.40
2022-10-11T01:55:36.430Z,3.00
2022-10-11T01:55:46.537Z,2.70
2022-10-11T01:55:56.584Z,3.00
2022-10-11T01:56:07.241Z,3.20
2022-10-11T01:56:16.673Z,3.00
2022-10-11T01:56:26.705Z,2.70
2022-10-11T01:56:36.766Z,2.40
2022-10-11T01:56:46.804Z,2.90
2022-10-11T01:56:56.844Z,2.70
2022-10-11T01:57:06.886Z,3.10
2022-10-11T01:57:16.924Z,3.00
2022-10-11T01:57:26.985Z,3.00
2022-10-11T01:57:37.036Z,2.70
2022-10-11T01:57:47.086Z,2.50
2022-10-11T01:57:57.131Z,2.70
2022-10-11T01:58:07.182Z,2.50
2022-10-11T01:58:17.214Z,2.70
2022-10-11T01:58:27.273Z,2.70
2022-10-11T01:58:37.315Z,2.90
2022-10-11T01:58:47.367Z,2.90
2022-10-11T01:58:57.416Z,3.10
2022-10-11T01:59:07.458Z,3.00
2022-10-11T01:59:17.495Z,3.10
2022-10-11T01:59:27.535Z,3.40
2022-10-11T01:59:37.575Z,3.10
2022-10-11T01:59:47.625Z,2.70
2022-10-11T01:59:57.694Z,2.40
2022-10-11T02:00:07.744Z,2.50
2022-10-11T02:00:17.777Z,2.50
2022-10-11T02:00:27.833Z,2.60
2022-10-11T02:00:37.877Z,2.60
2022-10-11T02:00:47.926Z,3.60
2022-10-11T02:00:58.050Z,3.50
2022-10-11T02:01:08.072Z,3.60
2022-10-11T02:01:18.171Z,3.10
2022-10-11T02:01:28.284Z,3.10
2022-10-11T02:01:38.442Z,3.40
2022-10-11T02:01:48.549Z,3.10
2022-10-11T02:01:58.598Z,3.50
2022-10-11T02:02:08.651Z,3.10
2022-10-11T02:02:18.712Z,3.30
2022-10-11T02:02:28.783Z,3.00
2022-10-11T02:02:38.828Z,3.30
2022-10-11T02:02:48.874Z,2.80
2022-10-11T02:02:58.915Z,2.90
2022-10-11T02:03:08.965Z,2.60
2022-10-11T02:03:19.005Z,2.70
2022-10-11T02:03:29.066Z,2.80
2022-10-11T02:03:39.154Z,3.40
2022-10-11T02:03:49.212Z,3.60
2022-10-11T02:03:59.264Z,3.10
2022-10-11T02:04:09.312Z,2.80
2022-10-11T02:04:19.356Z,3.20
2022-10-11T02:04:29.415Z,3.40
2022-10-11T02:04:39.595Z,3.30
2022-10-11T02:04:49.652Z,2.70
2022-10-11T02:04:59.704Z,3.00
2022-10-11T02:05:09.754Z,2.90
2022-10-11T02:05:19.814Z,2.90
2022-10-11T02:05:29.864Z,2.70
2022-10-11T02:05:39.934Z,3.00
2022-10-11T02:05:49.983Z,2.90
2022-10-11T02:06:00.042Z,2.60
2022-10-11T02:06:10.056Z,2.50
2022-10-11T02:06:20.122Z,2.50
2022-10-11T02:06:30.164Z,2.70
2022-10-11T02:06:40.213Z,2.70
2022-10-11T02:06:50.261Z,3.00
2022-10-11T02:07:00.322Z,2.90
2022-10-11T02:07:10.394Z,2.80
2022-10-11T02:07:20.431Z,2.60
2022-10-11T02:07:30.483Z,3.00
2022-10-11T02:07:40.542Z,3.00
2022-10-11T02:07:50.584Z,2.80
2022-10-11T02:08:00.634Z,2.50
2022-10-11T02:08:10.685Z,2.80
2022-10-11T02:08:20.742Z,3.30
2022-10-11T02:08:30.805Z,3.30
2022-10-11T02:08:40.864Z,2.90
2022-10-11T02:08:50.903Z,2.80
2022-10-11T02:09:04.490Z,2.90
2022-10-11T02:09:11.915Z,2.90
2022-10-11T02:09:21.977Z,2.70
2022-10-11T02:09:32.034Z,2.70
2022-10-11T02:09:42.092Z,2.70
2022-10-11T02:09:52.144Z,2.70
2022-10-11T02:10:02.204Z,3.00
2022-10-11T02:10:12.254Z,3.10
2022-10-11T02:10:22.304Z,3.50
2022-10-11T02:10:32.343Z,3.70
2022-10-11T02:10:42.423Z,3.40
2022-10-11T02:10:52.473Z,3.00
2022-10-11T02:11:02.516Z,3.00
2022-10-11T02:11:12.554Z,2.90
2022-10-11T02:11:22.625Z,3.00
2022-10-11T02:11:32.661Z,2.70
2022-10-11T02:11:42.724Z,2.90
2022-10-11T02:11:52.843Z,2.60
2022-10-11T02:12:02.893Z,2.60
2022-10-11T02:12:12.921Z,2.50
2022-10-11T02:12:22.962Z,2.50
2022-10-11T02:12:32.993Z,2.60
2022-10-11T02:12:43.131Z,2.60
2022-10-11T02:12:53.163Z,2.90
2022-10-11T02:13:03.193Z,3.20
2022-10-11T02:13:13.235Z,3.50
2022-10-11T02:13:23.254Z,3.50
2022-10-11T02:13:33.294Z,3.30
2022-10-11T02:13:43.321Z,3.10
2022-10-11T02:13:53.363Z,3.10
2022-10-11T02:14:03.386Z,3.00
2022-10-11T02:14:13.424Z,2.90
2022-10-11T02:14:23.461Z,2.70
2022-10-11T02:14:33.503Z,2.80